createdAt,value
2018-02-03T00:00:54.172Z,4.78
2018-02-03T00:01:53.912Z,4.8
2018-02-03T00:02:53.655Z,4.73
2018-02-03T00:03:53.896Z,4.63
2018-02-03T00:04:53.889Z,4.62
2018-02-03T00:05:53.629Z,4.59
2018-02-03T00:06:54.129Z,4.66
2018-02-03T00:07:53.865Z,4.66
2018-02-03T00:08:54.108Z,4.6
2018-02-03T00:09:53.850Z,4.52
2018-02-03T00:10:53.846Z,4.55
2018-02-03T00:11:53.606Z,4.6
2018-02-03T00:12:53.820Z,4.52
2018-02-03T00:13:53.830Z,4.55
2018-02-03T00:14:54.055Z,4.53
2018-02-03T00:15:53.793Z,4.52
2018-02-03T00:16:53.542Z,4.58
2018-02-03T00:17:53.781Z,4.58
2018-02-03T00:18:54.022Z,4.63
2018-02-03T00:19:54.012Z,4.71
2018-02-03T00:20:53.758Z,4.74
2018-02-03T00:21:53.751Z,4.73
2018-02-03T00:22:53.490Z,4.68
2018-02-03T00:23:53.731Z,4.67
2018-02-03T00:24:53.968Z,4.77
2018-02-03T00:25:53.708Z,4.68
2018-02-03T00:26:53.493Z,4.73
2018-02-03T00:27:53.700Z,4.67
2018-02-03T00:28:53.939Z,4.67
2018-02-03T00:29:53.678Z,4.63
2018-02-03T00:30:53.672Z,4.7
2018-02-03T00:31:53.916Z,4.77
2018-02-03T00:32:53.653Z,4.66
2018-02-03T00:33:53.901Z,4.7
2018-02-03T00:34:53.635Z,4.62
2018-02-03T00:35:53.634Z,4.7
2018-02-03T00:36:53.678Z,4.66
2018-02-03T00:37:53.359Z,4.6
2018-02-03T00:38:53.853Z,4.58
2018-02-03T00:39:53.591Z,4.59
2018-02-03T00:40:53.591Z,4.58
2018-02-03T00:41:53.586Z,4.5
2018-02-03T00:42:53.824Z,4.55
2018-02-03T00:43:53.820Z,4.53
2018-02-03T00:44:53.552Z,4.6
2018-02-03T00:45:53.542Z,4.6
2018-02-03T00:46:53.550Z,4.58
2018-02-03T00:47:53.541Z,4.5
2018-02-03T00:48:53.289Z,4.44
2018-02-03T00:49:53.293Z,4.37
2018-02-03T00:50:53.514Z,4.4
2018-02-03T00:51:53.492Z,4.32
2018-02-03T00:52:53.736Z,4.32
2018-02-03T00:53:53.729Z,4.34
2018-02-03T00:54:53.467Z,4.3
2018-02-03T00:55:53.464Z,4.3
2018-02-03T00:56:53.221Z,4.28
2018-02-03T00:57:53.479Z,4.28
2018-02-03T00:58:53.692Z,4.22
2018-02-03T00:59:53.443Z,4.28
2018-02-03T01:00:53.681Z,4.3
2018-02-03T01:01:53.732Z,4.26
2018-02-03T01:02:53.404Z,4.26
2018-02-03T01:03:53.644Z,4.22
2018-02-03T01:04:53.132Z,4.22
2018-02-03T01:05:53.634Z,4.3
2018-02-03T01:06:53.633Z,4.24
2018-02-03T01:07:53.619Z,4.23
2018-02-03T01:08:53.356Z,4.3
2018-02-03T01:09:53.600Z,4.24
2018-02-03T01:10:53.330Z,4.32
2018-02-03T01:11:53.320Z,4.32
2018-02-03T01:12:53.316Z,4.34
2018-02-03T01:13:53.568Z,4.38
2018-02-03T01:14:53.295Z,4.4
2018-02-03T01:15:53.546Z,4.4
2018-02-03T01:16:53.289Z,4.35
2018-02-03T01:17:53.544Z,4.52
2018-02-03T01:18:53.267Z,4.5
2018-02-03T01:19:53.260Z,4.53
2018-02-03T01:20:53.510Z,4.53
2018-02-03T01:21:53.250Z,4.53
2018-02-03T01:22:53.247Z,4.48
2018-02-03T01:23:53.232Z,4.56
2018-02-03T01:24:53.220Z,4.5
2018-02-03T01:25:53.478Z,4.5
2018-02-03T01:26:53.445Z,4.32
2018-02-03T01:27:53.196Z,4.32
2018-02-03T01:28:53.178Z,4.3
2018-02-03T01:29:53.196Z,4.28
2018-02-03T01:30:53.166Z,4.34
2018-02-03T01:31:53.163Z,4.23
2018-02-03T01:32:53.392Z,4.24
2018-02-03T01:33:53.139Z,4.16
2018-02-03T01:34:53.386Z,4.16
2018-02-03T01:35:53.138Z,4.14
2018-02-03T01:36:52.869Z,4.01
2018-02-03T01:37:52.845Z,4.02
2018-02-03T01:38:53.339Z,3.98
2018-02-03T01:39:53.080Z,3.86
2018-02-03T01:40:53.327Z,3.94
2018-02-03T01:41:53.320Z,3.84
2018-02-03T01:42:53.323Z,3.86
2018-02-03T01:43:53.312Z,3.88
2018-02-03T01:44:53.292Z,3.98
2018-02-03T01:45:53.282Z,4.04
2018-02-03T01:46:53.268Z,4.1
2018-02-03T01:47:53.022Z,4.13
2018-02-03T01:48:53.008Z,4.23
2018-02-03T01:49:53.257Z,4.26
2018-02-03T01:50:52.988Z,4.28
2018-02-03T01:51:53.234Z,4.26
2018-02-03T01:52:52.718Z,4.31
2018-02-03T01:53:52.963Z,4.31
2018-02-03T01:54:52.960Z,4.23
2018-02-03T01:55:52.949Z,4.17
2018-02-03T01:56:52.690Z,4.14
2018-02-03T01:57:52.925Z,4.13
2018-02-03T01:58:53.179Z,4.05
2018-02-03T01:59:53.165Z,4.06
2018-02-03T02:00:53.156Z,4.01
2018-02-03T02:01:53.155Z,3.91
2018-02-03T02:02:52.880Z,3.86
2018-02-03T02:03:53.135Z,3.81
2018-02-03T02:04:53.122Z,3.84
2018-02-03T02:05:52.870Z,3.91
2018-02-03T02:06:52.854Z,3.84
2018-02-03T02:07:52.877Z,3.76
2018-02-03T02:08:53.091Z,3.74
2018-02-03T02:09:52.564Z,3.7
2018-02-03T02:10:52.822Z,3.66
2018-02-03T02:11:53.120Z,3.6
2018-02-03T02:12:52.788Z,3.55
2018-02-03T02:13:53.101Z,3.56
2018-02-03T02:14:53.033Z,3.56
2018-02-03T02:15:53.018Z,3.47
2018-02-03T02:16:52.764Z,3.44
2018-02-03T02:17:52.750Z,3.32
2018-02-03T02:18:52.484Z,3.37
2018-02-03T02:19:52.984Z,3.25
2018-02-03T02:20:52.717Z,3.28
2018-02-03T02:21:52.729Z,3.18
2018-02-03T02:22:52.444Z,3.08
2018-02-03T02:23:52.944Z,3.18
2018-02-03T02:24:52.929Z,3.05
2018-02-03T02:25:52.432Z,3
2018-02-03T02:26:52.675Z,2.93
2018-02-03T02:27:52.647Z,2.95
2018-02-03T02:28:52.892Z,2.9
2018-02-03T02:29:52.641Z,2.87
2018-02-03T02:30:52.881Z,2.87
2018-02-03T02:31:52.619Z,2.75
2018-02-03T02:32:52.608Z,2.8
2018-02-03T02:33:52.845Z,2.71
2018-02-03T02:34:52.588Z,2.75
2018-02-03T02:35:52.599Z,2.77
2018-02-03T02:36:52.581Z,2.71
2018-02-03T02:37:52.802Z,2.77
2018-02-03T02:38:52.296Z,2.65
2018-02-03T02:39:52.794Z,2.72
2018-02-03T02:40:52.539Z,2.62
2018-02-03T02:41:52.833Z,2.74
2018-02-03T02:42:52.524Z,2.65
2018-02-03T02:43:52.758Z,2.77
2018-02-03T02:44:52.495Z,2.86
2018-02-03T02:45:52.478Z,2.92
2018-02-03T02:46:52.732Z,2.89
2018-02-03T02:47:52.713Z,2.8
2018-02-03T02:48:52.450Z,2.79
2018-02-03T02:49:52.694Z,2.9
2018-02-03T02:50:52.437Z,2.92
2018-02-03T02:51:52.430Z,2.98
2018-02-03T02:52:52.656Z,3.01
2018-02-03T02:53:52.456Z,3.07
2018-02-03T02:54:52.638Z,3.08
2018-02-03T02:55:52.633Z,3.07
2018-02-03T02:56:52.372Z,3.18
2018-02-03T02:57:52.116Z,3.07
2018-02-03T02:58:52.350Z,3.07
2018-02-03T02:59:53.445Z,3.03
2018-02-03T03:00:52.078Z,3.08
2018-02-03T03:01:52.334Z,3.1
2018-02-03T03:02:52.067Z,3.13
2018-02-03T03:03:52.303Z,3.13
2018-02-03T03:04:52.294Z,3.14
2018-02-03T03:05:52.552Z,3.13
2018-02-03T03:06:52.294Z,3.1
2018-02-03T03:07:52.268Z,3.23
2018-02-03T03:08:52.540Z,3.23
2018-02-03T03:09:52.249Z,3.23
2018-02-03T03:10:52.493Z,3.31
2018-02-03T03:11:52.015Z,3.22
2018-02-03T03:12:51.965Z,3.37
2018-02-03T03:13:52.210Z,3.34
2018-02-03T03:14:52.457Z,3.37
2018-02-03T03:15:52.192Z,3.36
2018-02-03T03:16:52.438Z,3.44
2018-02-03T03:17:52.175Z,3.42
2018-02-03T03:18:52.422Z,3.47
2018-02-03T03:19:52.403Z,3.51
2018-02-03T03:20:52.141Z,3.41
2018-02-03T03:21:52.387Z,3.44
2018-02-03T03:22:52.133Z,3.29
2018-02-03T03:23:52.113Z,3.42
2018-02-03T03:24:52.107Z,3.4
2018-02-03T03:25:52.342Z,3.4
2018-02-03T03:26:52.110Z,3.41
2018-02-03T03:27:52.080Z,3.42
2018-02-03T03:28:52.075Z,3.37
2018-02-03T03:29:54.404Z,3.31
2018-02-03T03:30:52.299Z,3.4
2018-02-03T03:31:52.046Z,3.32
2018-02-03T03:32:52.041Z,3.34
2018-02-03T03:33:52.021Z,3.37
2018-02-03T03:34:52.013Z,3.47
2018-02-03T03:35:52.261Z,3.36
2018-02-03T03:36:51.999Z,3.34
2018-02-03T03:37:51.731Z,3.48
2018-02-03T03:38:51.977Z,3.44
2018-02-03T03:39:51.712Z,3.37
2018-02-03T03:40:51.967Z,3.44
2018-02-03T03:41:51.946Z,3.41
2018-02-03T03:42:51.943Z,3.4
2018-02-03T03:43:51.928Z,3.51
2018-02-03T03:44:52.227Z,3.47
2018-02-03T03:45:51.919Z,3.5
2018-02-03T03:46:52.175Z,3.51
2018-02-03T03:47:52.159Z,3.55
2018-02-03T03:48:52.152Z,3.45
2018-02-03T03:49:52.128Z,3.5
2018-02-03T03:50:52.116Z,3.51
2018-02-03T03:51:52.125Z,3.58
2018-02-03T03:52:52.114Z,3.51
2018-02-03T03:53:51.836Z,3.48
2018-02-03T03:54:51.825Z,3.53
2018-02-03T03:55:52.073Z,3.45
2018-02-03T03:56:51.808Z,3.53
2018-02-03T03:57:52.051Z,3.51
2018-02-03T03:58:52.055Z,3.48
2018-02-03T03:59:52.045Z,3.65
2018-02-03T04:00:52.028Z,3.6
2018-02-03T04:01:51.776Z,3.65
2018-02-03T04:02:51.502Z,3.6
2018-02-03T04:03:51.498Z,3.7
2018-02-03T04:04:51.990Z,3.68
2018-02-03T04:05:51.986Z,3.73
2018-02-03T04:06:51.978Z,3.77
2018-02-03T04:07:51.709Z,3.77
2018-02-03T04:08:51.703Z,3.76
2018-02-03T04:09:51.701Z,3.86
2018-02-03T04:10:51.955Z,3.83
2018-02-03T04:11:51.929Z,3.78
2018-02-03T04:12:51.416Z,3.81
2018-02-03T04:13:51.663Z,3.83
2018-02-03T04:14:51.413Z,3.84
2018-02-03T04:15:51.394Z,3.8
2018-02-03T04:16:51.629Z,3.84
2018-02-03T04:17:51.622Z,3.81
2018-02-03T04:18:51.617Z,3.86
2018-02-03T04:19:51.611Z,3.81
2018-02-03T04:20:51.857Z,3.74
2018-02-03T04:21:51.837Z,3.77
2018-02-03T04:22:51.839Z,3.74
2018-02-03T04:23:51.834Z,3.76
2018-02-03T04:24:51.555Z,3.81
2018-02-03T04:25:51.838Z,3.65
2018-02-03T04:26:51.799Z,3.68
2018-02-03T04:27:51.534Z,3.8
2018-02-03T04:28:51.775Z,3.68
2018-02-03T04:29:51.768Z,3.7
2018-02-03T04:30:55.267Z,3.74
2018-02-03T04:31:51.496Z,3.7
2018-02-03T04:32:51.485Z,3.74
2018-02-03T04:33:51.224Z,3.76
2018-02-03T04:34:51.479Z,3.74
2018-02-03T04:35:51.712Z,3.77
2018-02-03T04:36:51.447Z,3.77
2018-02-03T04:37:51.439Z,3.74
2018-02-03T04:38:51.690Z,3.78
2018-02-03T04:39:51.676Z,3.73
2018-02-03T04:40:51.424Z,3.74
2018-02-03T04:41:51.412Z,3.74
2018-02-03T04:42:51.399Z,3.76
2018-02-03T04:43:51.393Z,3.76
2018-02-03T04:44:51.389Z,3.65
2018-02-03T04:45:51.632Z,3.68
2018-02-03T04:46:51.359Z,3.6
2018-02-03T04:47:51.352Z,3.65
2018-02-03T04:48:51.592Z,3.58
2018-02-03T04:49:51.081Z,3.58
2018-02-03T04:50:51.577Z,3.58
2018-02-03T04:51:51.570Z,3.48
2018-02-03T04:52:51.567Z,3.5
2018-02-03T04:53:51.553Z,3.45
2018-02-03T04:54:51.571Z,3.42
2018-02-03T04:55:51.026Z,3.5
2018-02-03T04:56:51.021Z,3.5
2018-02-03T04:57:51.019Z,3.51
2018-02-03T04:58:51.506Z,3.63
2018-02-03T04:59:51.244Z,3.65
2018-02-03T05:00:51.492Z,3.6
2018-02-03T05:01:51.223Z,3.62
2018-02-03T05:02:51.218Z,3.62
2018-02-03T05:03:50.955Z,3.7
2018-02-03T05:04:51.193Z,3.7
2018-02-03T05:05:50.944Z,3.65
2018-02-03T05:06:50.941Z,3.69
2018-02-03T05:07:51.427Z,3.68
2018-02-03T05:08:51.410Z,3.68
2018-02-03T05:09:51.156Z,3.73
2018-02-03T05:10:51.473Z,3.66
2018-02-03T05:11:51.388Z,3.69
2018-02-03T05:12:51.135Z,3.66
2018-02-03T05:13:51.117Z,3.68
2018-02-03T05:14:51.376Z,3.68
2018-02-03T05:15:51.098Z,3.69
2018-02-03T05:16:52.142Z,3.66
2018-02-03T05:17:51.078Z,3.65
2018-02-03T05:18:51.319Z,3.69
2018-02-03T05:19:51.311Z,3.65
2018-02-03T05:20:51.103Z,3.73
2018-02-03T05:21:51.299Z,3.69
2018-02-03T05:22:51.295Z,3.69
2018-02-03T05:23:51.026Z,3.74
2018-02-03T05:24:51.270Z,3.66
2018-02-03T05:25:51.016Z,3.76
2018-02-03T05:26:51.250Z,3.63
2018-02-03T05:27:50.739Z,3.69
2018-02-03T05:28:51.234Z,3.68
2018-02-03T05:29:50.720Z,3.69
2018-02-03T05:30:50.966Z,3.69
2018-02-03T05:31:51.516Z,3.63
2018-02-03T05:32:50.942Z,3.63
2018-02-03T05:33:50.936Z,3.66
2018-02-03T05:34:50.933Z,3.65
2018-02-03T05:35:50.676Z,3.7
2018-02-03T05:36:50.909Z,3.7
2018-02-03T05:37:50.906Z,3.68
2018-02-03T05:38:50.901Z,3.73
2018-02-03T05:39:50.882Z,3.74
2018-02-03T05:40:50.626Z,3.76
2018-02-03T05:41:50.865Z,3.76
2018-02-03T05:42:50.857Z,3.7
2018-02-03T05:43:50.593Z,3.68
2018-02-03T05:44:51.096Z,3.77
2018-02-03T05:45:50.832Z,3.73
2018-02-03T05:46:50.821Z,3.65
2018-02-03T05:47:51.064Z,3.65
2018-02-03T05:48:51.055Z,3.68
2018-02-03T05:49:50.800Z,3.7
2018-02-03T05:50:50.803Z,3.74
2018-02-03T05:51:50.551Z,3.74
2018-02-03T05:52:50.522Z,3.69
2018-02-03T05:53:50.801Z,3.69
2018-02-03T05:54:51.005Z,3.69
2018-02-03T05:55:51.001Z,3.59
2018-02-03T05:56:50.737Z,3.7
2018-02-03T05:57:50.972Z,3.7
2018-02-03T05:58:50.735Z,3.68
2018-02-03T05:59:50.715Z,3.69
2018-02-03T06:00:50.954Z,3.74
2018-02-03T06:01:51.249Z,3.68
2018-02-03T06:02:50.690Z,3.7
2018-02-03T06:03:50.662Z,3.65
2018-02-03T06:04:50.916Z,3.77
2018-02-03T06:05:50.662Z,3.62
2018-02-03T06:06:50.951Z,3.68
2018-02-03T06:07:50.404Z,3.69
2018-02-03T06:08:50.640Z,3.68
2018-02-03T06:09:50.623Z,3.68
2018-02-03T06:10:50.870Z,3.63
2018-02-03T06:11:50.361Z,3.6
2018-02-03T06:12:50.862Z,3.63
2018-02-03T06:13:50.589Z,3.63
2018-02-03T06:23:34.154Z,3.66
2018-02-03T06:24:34.144Z,3.69
2018-02-03T06:25:34.389Z,3.63
2018-02-03T06:26:34.367Z,3.69
2018-02-03T06:27:34.119Z,3.63
2018-02-03T06:28:34.353Z,3.62
2018-02-03T06:29:34.340Z,3.63
2018-02-03T06:30:34.324Z,3.63
2018-02-03T06:31:34.074Z,3.59
2018-02-03T06:32:34.302Z,3.56
2018-02-03T06:33:34.291Z,3.6
2018-02-03T06:34:34.285Z,3.62
2018-02-03T06:35:34.115Z,3.55
2018-02-03T06:36:33.763Z,3.59
2018-02-03T06:37:34.008Z,3.66
2018-02-03T06:38:37.249Z,3.65
2018-02-03T06:39:34.229Z,3.58
2018-02-03T06:40:34.222Z,3.55
2018-02-03T06:41:34.222Z,3.5
2018-02-03T06:42:33.954Z,3.48
2018-02-03T06:43:33.939Z,3.48
2018-02-03T06:44:33.946Z,3.56
2018-02-03T06:45:33.920Z,3.47
2018-02-03T06:46:34.163Z,3.5
2018-02-03T06:47:34.155Z,3.5
2018-02-03T06:48:33.903Z,3.47
2018-02-03T06:49:33.898Z,3.55
2018-02-03T06:50:33.895Z,3.6
2018-02-03T06:51:33.863Z,3.48
2018-02-03T06:52:33.602Z,3.56
2018-02-03T06:53:34.913Z,3.55
2018-02-03T06:54:34.090Z,3.51
2018-02-03T06:55:34.088Z,3.45
2018-02-03T06:56:33.574Z,3.45
2018-02-03T06:57:34.058Z,3.55
2018-02-03T06:58:33.800Z,3.58
2018-02-03T06:59:33.790Z,3.59
2018-02-03T07:00:34.058Z,3.59
2018-02-03T07:01:33.770Z,3.6
2018-02-03T07:02:34.029Z,3.58
2018-02-03T07:03:33.998Z,3.6
2018-02-03T07:04:33.996Z,3.6
2018-02-03T07:05:33.746Z,3.62
2018-02-03T07:06:33.901Z,3.6
2018-02-03T07:07:33.718Z,3.58
2018-02-03T07:08:33.955Z,3.63
2018-02-03T07:09:34.050Z,3.65
2018-02-03T07:10:33.696Z,3.62
2018-02-03T07:11:33.984Z,3.58
2018-02-03T07:12:33.686Z,3.58
2018-02-03T07:13:33.907Z,3.56
2018-02-03T07:14:33.911Z,3.59
2018-02-03T07:15:33.638Z,3.58
2018-02-03T07:16:33.878Z,3.56
2018-02-03T07:17:33.869Z,3.56
2018-02-03T07:18:33.912Z,3.51
2018-02-03T07:19:33.856Z,3.56
2018-02-03T07:20:33.849Z,3.5
2018-02-03T07:21:33.831Z,3.58
2018-02-03T07:22:33.574Z,3.59
2018-02-03T07:23:33.816Z,3.59
2018-02-03T07:24:35.964Z,3.58
2018-02-03T07:25:33.549Z,3.58
2018-02-03T07:26:33.532Z,3.6
2018-02-03T07:27:33.779Z,3.6
2018-02-03T07:28:33.524Z,3.65
2018-02-03T07:29:34.331Z,3.69
2018-02-03T07:30:33.586Z,3.63
2018-02-03T07:31:33.744Z,3.76
2018-02-03T07:32:33.231Z,3.81
2018-02-03T07:33:33.483Z,3.78
2018-02-03T07:34:33.725Z,3.86
2018-02-03T07:35:33.466Z,3.84
2018-02-03T07:36:33.711Z,3.86
2018-02-03T07:37:33.702Z,3.8
2018-02-03T07:38:33.430Z,3.91
2018-02-03T07:39:35.029Z,3.91
2018-02-03T07:40:33.407Z,3.88
2018-02-03T07:41:33.411Z,3.95
2018-02-03T07:42:33.407Z,3.88
2018-02-03T07:43:33.398Z,3.87
2018-02-03T07:44:33.651Z,3.87
2018-02-03T07:45:33.619Z,3.95
2018-02-03T07:46:33.356Z,3.95
2018-02-03T07:47:33.602Z,3.95
2018-02-03T07:48:33.594Z,4.02
2018-02-03T07:49:33.088Z,4.01
2018-02-03T07:50:33.325Z,4.01
2018-02-03T07:51:33.062Z,4.08
2018-02-03T07:52:33.569Z,4.13
2018-02-03T07:53:33.295Z,4.04
2018-02-03T07:54:33.297Z,4.19
2018-02-03T07:55:33.541Z,4.17
2018-02-03T07:56:33.269Z,4.17
2018-02-03T07:57:33.513Z,4.16
2018-02-03T07:58:33.254Z,4.22
2018-02-03T07:59:33.497Z,4.22
2018-02-03T08:00:33.237Z,4.22
2018-02-03T08:01:33.235Z,4.22
2018-02-03T08:02:33.237Z,4.28
2018-02-03T08:03:33.230Z,4.26
2018-02-03T08:04:33.459Z,4.3
2018-02-03T08:05:33.454Z,4.26
2018-02-03T08:06:33.185Z,4.28
2018-02-03T08:07:33.444Z,4.28
2018-02-03T08:08:33.428Z,4.22
2018-02-03T08:09:33.167Z,4.3
2018-02-03T08:10:33.409Z,4.23
2018-02-03T08:11:33.153Z,4.26
2018-02-03T08:12:33.144Z,4.26
2018-02-03T08:13:33.400Z,4.34
2018-02-03T08:14:33.123Z,4.4
2018-02-03T08:15:33.113Z,4.4
2018-02-03T08:16:33.361Z,4.32
2018-02-03T08:17:33.358Z,4.44
2018-02-03T08:18:33.361Z,4.41
2018-02-03T08:19:33.329Z,4.48
2018-02-03T08:20:33.322Z,4.49
2018-02-03T08:21:33.327Z,4.48
2018-02-03T08:22:33.325Z,4.5
2018-02-03T08:23:33.052Z,4.53
2018-02-03T08:24:33.040Z,4.5
2018-02-03T08:25:33.283Z,4.49
2018-02-03T08:26:33.039Z,4.55
2018-02-03T08:27:33.268Z,4.56
2018-02-03T08:28:33.005Z,4.55
2018-02-03T08:29:33.003Z,4.62
2018-02-03T08:30:33.040Z,4.6
2018-02-03T08:31:33.253Z,4.62
2018-02-03T08:32:33.224Z,4.63
2018-02-03T08:33:33.219Z,4.59
2018-02-03T08:34:33.209Z,4.71
2018-02-03T08:35:32.698Z,4.68
2018-02-03T08:36:33.231Z,4.82
2018-02-03T08:37:33.394Z,4.77
2018-02-03T08:38:32.679Z,4.8
2018-02-03T08:39:32.920Z,4.87
2018-02-03T08:40:34.963Z,4.84
2018-02-03T08:41:33.156Z,4.89
2018-02-03T08:42:32.648Z,4.86
2018-02-03T08:43:32.898Z,4.93
2018-02-03T08:44:32.880Z,4.97
2018-02-03T08:45:32.876Z,5.02
2018-02-03T08:46:32.862Z,5
2018-02-03T08:47:32.860Z,5.1
2018-02-03T08:48:32.849Z,5.08
2018-02-03T08:49:32.844Z,5.05
2018-02-03T08:50:32.852Z,5.12
2018-02-03T08:51:32.833Z,5.11
2018-02-03T08:52:32.826Z,5.12
2018-02-03T08:53:32.570Z,5.11
2018-02-03T08:54:33.059Z,5.14
2018-02-03T08:55:33.056Z,5.15
2018-02-03T08:56:33.055Z,5.18
2018-02-03T08:57:32.835Z,5.17
2018-02-03T08:58:33.030Z,5.08
2018-02-03T08:59:32.512Z,5.02
2018-02-03T09:00:33.063Z,5.08
2018-02-03T09:01:32.752Z,5.05
2018-02-03T09:02:32.766Z,5.02
2018-02-03T09:03:32.494Z,5.1
2018-02-03T09:04:32.993Z,5.05
2018-02-03T09:05:33.520Z,5.11
2018-02-03T09:06:32.964Z,5.05
2018-02-03T09:07:32.707Z,4.82
2018-02-03T09:08:32.962Z,4.82
2018-02-03T09:09:32.460Z,4.89
2018-02-03T09:10:32.933Z,4.82
2018-02-03T09:11:32.677Z,4.86
2018-02-03T09:12:32.977Z,4.84
2018-02-03T09:13:32.910Z,4.94
2018-02-03T09:14:32.960Z,4.93
2018-02-03T09:15:32.647Z,4.86
2018-02-03T09:16:32.942Z,4.92
2018-02-03T09:17:32.386Z,4.84
2018-02-03T09:18:32.871Z,4.9
2018-02-03T09:19:32.869Z,4.9
2018-02-03T09:20:32.613Z,4.96
2018-02-03T09:21:32.849Z,4.93
2018-02-03T09:22:32.343Z,5.05
2018-02-03T09:23:32.837Z,5.11
2018-02-03T09:24:32.584Z,5.05
2018-02-03T09:25:32.891Z,4.99
2018-02-03T09:26:34.165Z,4.99
2018-02-03T09:27:32.581Z,4.97
2018-02-03T09:28:32.583Z,4.94
2018-02-03T09:29:32.792Z,4.96
2018-02-03T09:30:32.783Z,4.99
2018-02-03T09:31:32.781Z,4.97
2018-02-03T09:32:32.775Z,4.99
2018-02-03T09:33:32.510Z,5.08
2018-02-03T09:34:32.755Z,5.04
2018-02-03T09:35:32.502Z,5.1
2018-02-03T09:36:32.235Z,5.08
2018-02-03T09:37:32.732Z,5.04
2018-02-03T09:38:32.226Z,5.05
2018-02-03T09:39:32.725Z,4.99
2018-02-03T09:40:32.460Z,5.05
2018-02-03T09:41:32.751Z,5.05
2018-02-03T09:42:32.445Z,5.11
2018-02-03T09:43:32.689Z,5.23
2018-02-03T09:44:32.681Z,5.25
2018-02-03T09:45:32.672Z,5.3
2018-02-03T09:46:32.667Z,5.35
2018-02-03T09:47:32.659Z,5.44
2018-02-03T09:48:32.659Z,5.35
2018-02-03T09:49:32.405Z,5.41
2018-02-03T09:50:32.641Z,5.53
2018-02-03T09:51:32.381Z,5.53
2018-02-03T09:52:32.387Z,5.48
2018-02-03T09:53:32.624Z,5.43
2018-02-03T09:54:32.609Z,5.43
2018-02-03T09:55:32.606Z,5.5
2018-02-03T09:56:34.026Z,5.51
2018-02-03T09:57:32.599Z,5.54
2018-02-03T09:58:32.588Z,5.44
2018-02-03T09:59:32.069Z,5.48
2018-02-03T10:00:32.618Z,5.51
2018-02-03T10:01:32.562Z,5.51
2018-02-03T10:02:32.571Z,5.51
2018-02-03T10:03:32.311Z,5.53
2018-02-03T10:04:32.307Z,5.43
2018-02-03T10:05:32.027Z,5.39
2018-02-03T10:06:32.276Z,5.32
2018-02-03T10:07:32.019Z,5.12
2018-02-03T10:08:32.271Z,5.12
2018-02-03T10:09:32.519Z,5.02
2018-02-03T10:10:32.509Z,5.07
2018-02-03T10:11:32.237Z,5.12
2018-02-03T10:12:32.481Z,5.08
2018-02-03T10:13:31.979Z,5.3
2018-02-03T10:14:32.476Z,5.38
2018-02-03T10:15:32.462Z,5.5
2018-02-03T10:16:32.212Z,5.51
2018-02-03T10:17:32.451Z,5.64
2018-02-03T10:18:31.938Z,5.79
2018-02-03T10:19:32.454Z,5.91
2018-02-03T10:20:32.428Z,5.94
2018-02-03T10:21:32.418Z,5.93
2018-02-03T10:22:31.911Z,5.89
2018-02-03T10:23:32.160Z,5.89
2018-02-03T10:53:25.700Z,5.54
2018-02-03T10:54:23.679Z,5.56
2018-02-03T10:55:23.665Z,5.5
2018-02-03T10:56:23.906Z,5.56
2018-02-03T10:57:23.642Z,5.66
2018-02-03T10:58:23.632Z,5.68
2018-02-03T10:59:23.380Z,5.71
2018-02-03T11:00:23.883Z,5.65
2018-02-03T11:01:23.345Z,5.62
2018-02-03T11:02:23.616Z,5.62
2018-02-03T11:03:23.594Z,5.59
2018-02-03T11:04:23.586Z,5.64
2018-02-03T11:05:23.581Z,5.61
2018-02-03T11:06:23.579Z,5.65
2018-02-03T11:07:23.562Z,5.84
2018-02-03T11:08:23.806Z,5.87
2018-02-03T11:09:23.287Z,5.93
2018-02-03T11:10:23.546Z,5.9
2018-02-03T11:11:23.590Z,5.87
2018-02-03T11:12:23.773Z,5.8
2018-02-03T11:13:23.779Z,5.86
2018-02-03T11:14:23.252Z,5.93
2018-02-03T11:15:23.829Z,5.97
2018-02-03T11:16:23.737Z,5.99
2018-02-03T11:17:23.481Z,6.26
2018-02-03T11:18:23.221Z,6.24
2018-02-03T11:19:23.715Z,6.2
2018-02-03T11:20:23.460Z,6.22
2018-02-03T11:21:23.453Z,6.11
2018-02-03T11:22:23.438Z,6.08
2018-02-03T11:23:23.434Z,6.07
2018-02-03T11:24:23.673Z,6.08
2018-02-03T11:25:23.465Z,6.09
2018-02-03T11:26:23.418Z,6.02
2018-02-03T11:27:23.414Z,6.11
2018-02-03T11:28:23.161Z,6.12
2018-02-03T11:29:23.653Z,6.12
2018-02-03T11:30:23.416Z,6.24
2018-02-03T11:31:23.382Z,6.2
2018-02-03T11:32:23.625Z,6.27
2018-02-03T11:33:23.371Z,6.38
2018-02-03T11:34:23.362Z,6.39
2018-02-03T11:35:23.096Z,6.42
2018-02-03T11:36:23.598Z,6.39
2018-02-03T11:37:23.603Z,6.36
2018-02-03T11:38:23.332Z,6.33
2018-02-03T11:39:23.587Z,6.36
2018-02-03T11:40:23.068Z,6.26
2018-02-03T11:41:23.569Z,6.22
2018-02-03T11:42:23.577Z,6.17
2018-02-03T11:43:23.298Z,6.14
2018-02-03T11:44:23.554Z,6.11
2018-02-03T11:45:23.038Z,6.11
2018-02-03T11:46:23.277Z,6.09
2018-02-03T11:47:23.525Z,6.17
2018-02-03T11:48:23.268Z,6.28
2018-02-03T11:49:23.010Z,6.26
2018-02-03T11:50:23.550Z,6.26
2018-02-03T11:51:23.002Z,6.28
2018-02-03T11:52:22.992Z,6.28
2018-02-03T11:53:25.441Z,6.3
2018-02-03T11:54:23.226Z,6.33
2018-02-03T11:55:23.476Z,6.27
2018-02-03T11:56:23.472Z,6.44
2018-02-03T11:57:23.212Z,6.42
2018-02-03T11:58:23.457Z,6.6
2018-02-03T11:59:23.206Z,6.59
2018-02-03T12:00:23.528Z,6.44
2018-02-03T12:01:22.932Z,6.59
2018-02-03T12:02:23.177Z,6.59
2018-02-03T12:03:23.171Z,6.6
2018-02-03T12:04:23.164Z,6.64
2018-02-03T12:05:23.225Z,6.66
2018-02-03T12:06:23.152Z,6.63
2018-02-03T12:07:23.155Z,6.63
2018-02-03T12:08:23.400Z,6.63
2018-02-03T12:09:23.135Z,6.51
2018-02-03T12:10:23.383Z,6.51
2018-02-03T12:11:22.874Z,6.59
2018-02-03T12:12:23.385Z,6.48
2018-02-03T12:13:22.860Z,6.44
2018-02-03T12:14:23.100Z,6.45
2018-02-03T12:15:23.166Z,6.41
2018-02-03T12:16:23.345Z,6.27
2018-02-03T12:17:22.833Z,6.3
2018-02-03T12:18:22.826Z,6.27
2018-02-03T12:19:23.324Z,6.16
2018-02-03T12:20:23.081Z,6.2
2018-02-03T12:21:23.317Z,6.24
2018-02-03T12:22:23.059Z,6.27
2018-02-03T12:23:24.049Z,6.31
2018-02-03T12:24:23.050Z,6.33
2018-02-03T12:25:22.779Z,6.3
2018-02-03T12:26:23.027Z,6.16
2018-02-03T12:27:23.274Z,6.12
2018-02-03T12:28:23.274Z,6.22
2018-02-03T12:29:23.023Z,6.16
2018-02-03T12:30:23.253Z,6.22
2018-02-03T12:31:22.998Z,6.33
2018-02-03T12:32:23.240Z,6.41
2018-02-03T12:33:22.742Z,6.52
2018-02-03T12:34:23.228Z,6.44
2018-02-03T12:35:22.973Z,6.36
2018-02-03T12:36:23.218Z,6.3
2018-02-03T12:37:23.209Z,6.14
2018-02-03T12:38:23.207Z,6.07
2018-02-03T12:39:22.705Z,6.07
2018-02-03T12:40:23.002Z,6.09
2018-02-03T12:41:22.711Z,5.99
2018-02-03T12:42:23.180Z,5.98
2018-02-03T12:43:23.176Z,5.93
2018-02-03T12:44:22.659Z,5.9
2018-02-03T12:45:22.903Z,5.86
2018-02-03T12:46:22.654Z,5.79
2018-02-03T12:47:23.140Z,5.84
2018-02-03T12:48:23.144Z,5.86
2018-02-03T12:49:23.127Z,5.87
2018-02-03T12:50:23.131Z,5.84
2018-02-03T12:51:23.116Z,5.82
2018-02-03T12:52:22.602Z,5.89
2018-02-03T12:53:23.099Z,5.94
2018-02-03T12:54:23.146Z,5.94
2018-02-03T12:55:23.100Z,5.91
2018-02-03T12:56:22.621Z,5.89
2018-02-03T12:57:22.820Z,5.97
2018-02-03T12:58:22.812Z,5.89
2018-02-03T12:59:22.805Z,5.91
2018-02-03T13:00:22.552Z,5.94
2018-02-03T13:01:23.048Z,5.97
2018-02-03T13:02:23.040Z,5.89
2018-02-03T13:03:23.036Z,5.99
2018-02-03T13:04:22.521Z,5.93
2018-02-03T13:05:22.777Z,5.89
2018-02-03T13:06:22.503Z,5.94
2018-02-03T13:07:22.760Z,5.84
2018-02-03T13:08:22.741Z,5.79
2018-02-03T13:09:22.794Z,5.83
2018-02-03T13:10:22.736Z,5.79
2018-02-03T13:11:22.729Z,5.72
2018-02-03T13:12:22.463Z,5.8
2018-02-03T13:13:22.725Z,5.84
2018-02-03T13:14:23.031Z,5.79
2018-02-03T13:15:22.691Z,5.9
2018-02-03T13:16:22.689Z,5.86
2018-02-03T13:17:22.687Z,5.82
2018-02-03T13:18:22.673Z,5.8
2018-02-03T13:19:22.672Z,5.76
2018-02-03T13:20:22.669Z,5.83
2018-02-03T13:21:22.926Z,5.82
2018-02-03T13:22:22.638Z,5.82
2018-02-03T13:23:22.636Z,5.86
2018-02-03T13:24:23.077Z,5.84
2018-02-03T13:25:22.622Z,5.75
2018-02-03T13:26:22.866Z,5.84
2018-02-03T13:27:22.609Z,5.8
2018-02-03T13:28:22.600Z,5.75
2018-02-03T13:29:22.594Z,5.86
2018-02-03T13:30:22.583Z,5.84
2018-02-03T13:31:22.323Z,5.83
2018-02-03T13:32:22.582Z,5.93
2018-02-03T13:33:22.313Z,5.97
2018-02-03T13:34:22.562Z,5.94
2018-02-03T13:35:22.813Z,5.93
2018-02-03T13:36:22.804Z,5.97
2018-02-03T13:37:22.529Z,5.97
2018-02-03T13:38:22.527Z,6.04
2018-02-03T13:39:22.268Z,6.12
2018-02-03T13:40:22.519Z,6.2
2018-02-03T13:41:22.758Z,6.14
2018-02-03T13:42:22.751Z,6.16
2018-02-03T13:43:22.492Z,6.12
2018-02-03T13:44:22.746Z,6.12
2018-02-03T13:45:22.733Z,6.12
2018-02-03T13:46:22.473Z,6.09
2018-02-03T13:47:22.212Z,6.07
2018-02-03T13:48:22.459Z,6.09
2018-02-03T13:49:22.711Z,6.12
2018-02-03T13:50:22.695Z,6.16
2018-02-03T13:51:22.443Z,6.09
2018-02-03T13:52:22.680Z,6.09
2018-02-03T13:53:22.673Z,6.07
2018-02-03T13:54:22.677Z,6.04
2018-02-03T13:55:22.414Z,5.99
2018-02-03T13:56:22.156Z,6.02
2018-02-03T13:57:22.414Z,6.07
2018-02-03T13:58:22.397Z,6.08
2018-02-03T13:59:22.639Z,6.11
2018-02-03T14:00:22.376Z,6.08